createdAt,value
2022-12-25T00:00:22.280Z,2.82
2022-12-25T00:03:07.961Z,2.85
2022-12-25T00:05:52.977Z,2.81
2022-12-25T00:08:39.414Z,2.82
2022-12-25T00:11:24.107Z,2.77
2022-12-25T00:14:09.304Z,2.76
2022-12-25T00:16:54.127Z,2.76
2022-12-25T00:19:39.227Z,2.75
2022-12-25T00:22:24.248Z,2.72
2022-12-25T00:25:09.244Z,2.72
2022-12-25T00:27:54.296Z,2.72
2022-12-25T00:30:40.418Z,2.70
2022-12-25T00:33:25.688Z,2.67
2022-12-25T00:36:12.085Z,2.67
2022-12-25T00:38:56.711Z,2.65
2022-12-25T00:42:00.353Z,2.65
2022-12-25T00:44:49.640Z,2.67
2022-12-25T00:47:34.281Z,2.68
2022-12-25T00:50:19.339Z,2.67
2022-12-25T00:53:04.327Z,2.68
2022-12-25T00:56:00.681Z,2.69
2022-12-25T00:58:45.896Z,2.69
2022-12-25T01:01:31.825Z,2.65
2022-12-25T01:04:16.934Z,2.64
2022-12-25T01:07:01.784Z,2.64
2022-12-25T01:10:05.881Z,2.62
2022-12-25T01:12:51.340Z,2.61
2022-12-25T01:15:36.725Z,2.55
2022-12-25T01:18:23.813Z,2.56
2022-12-25T01:21:10.603Z,2.54
2022-12-25T01:23:55.577Z,2.52
2022-12-25T01:26:40.392Z,2.52
2022-12-25T01:29:24.987Z,2.51
2022-12-25T01:32:10.075Z,2.46
2022-12-25T01:34:56.418Z,2.47
2022-12-25T01:37:41.422Z,2.45
2022-12-25T01:40:26.116Z,2.46
2022-12-25T01:43:32.236Z,2.45
2022-12-25T01:46:16.976Z,2.42
2022-12-25T01:49:08.973Z,2.38
2022-12-25T01:52:02.052Z,2.38
2022-12-25T01:54:57.642Z,2.35
2022-12-25T01:57:43.590Z,2.35
2022-12-25T02:00:28.410Z,2.33
2022-12-25T02:03:13.702Z,2.31
2022-12-25T02:05:59.871Z,2.24
2022-12-25T02:08:45.051Z,2.22
2022-12-25T02:11:48.229Z,2.23
2022-12-25T02:14:36.182Z,2.21
2022-12-25T02:17:30.744Z,2.22
2022-12-25T02:20:56.238Z,2.19
2022-12-25T02:24:07.206Z,2.19
2022-12-25T02:27:30.818Z,2.15
2022-12-25T02:30:15.667Z,2.14
2022-12-25T02:33:25.304Z,2.15
2022-12-25T02:36:16.113Z,2.15
2022-12-25T02:39:23.588Z,2.09
2022-12-25T02:42:13.944Z,2.01
2022-12-25T02:45:18.152Z,2.03
2022-12-25T02:48:23.575Z,2.00
2022-12-25T02:51:30.480Z,2.03
2022-12-25T02:54:47.033Z,2.07
2022-12-25T02:57:55.658Z,2.07
2022-12-25T03:01:41.514Z,2.06
2022-12-25T03:04:46.667Z,2.05
2022-12-25T03:07:33.821Z,2.05
2022-12-25T03:10:39.130Z,2.00
2022-12-25T03:13:30.960Z,2.00
2022-12-25T03:16:34.956Z,1.96
2022-12-25T03:19:42.592Z,1.96
2022-12-25T03:22:49.535Z,1.93
2022-12-25T03:25:53.196Z,1.93
2022-12-25T03:28:39.169Z,1.94
2022-12-25T03:31:39.422Z,1.91
2022-12-25T03:34:55.873Z,1.90
2022-12-25T03:38:30.663Z,1.87
2022-12-25T03:42:04.790Z,1.87
2022-12-25T03:45:20.358Z,1.83
2022-12-25T03:48:27.321Z,1.79
2022-12-25T03:51:36.624Z,1.73
2022-12-25T03:54:45.873Z,1.74
2022-12-25T03:57:59.937Z,1.75
2022-12-25T04:01:03.419Z,1.75
2022-12-25T04:04:07.113Z,1.79
2022-12-25T04:07:10.343Z,1.79
2022-12-25T04:10:13.730Z,1.77
2022-12-25T04:13:17.001Z,1.71
2022-12-25T04:16:20.486Z,1.67
2022-12-25T04:19:23.641Z,1.68
2022-12-25T04:22:26.964Z,1.72
2022-12-25T04:25:30.676Z,1.72
2022-12-25T04:28:33.908Z,1.71
2022-12-25T04:31:53.881Z,1.66
2022-12-25T04:34:56.883Z,1.67
2022-12-25T04:37:41.817Z,1.65
2022-12-25T04:40:26.572Z,1.65
2022-12-25T04:43:11.359Z,1.63
2022-12-25T04:45:57.715Z,1.64
2022-12-25T04:48:42.489Z,1.66
2022-12-25T04:51:27.208Z,1.67
2022-12-25T04:54:12.135Z,1.68
2022-12-25T04:56:56.802Z,1.70
2022-12-25T04:59:41.374Z,1.70
2022-12-25T05:02:26.397Z,1.68
2022-12-25T05:05:11.309Z,1.66
2022-12-25T05:07:57.296Z,1.67
2022-12-25T05:10:42.063Z,1.69
2022-12-25T05:13:26.742Z,1.67
2022-12-25T05:16:14.709Z,1.66
2022-12-25T05:18:59.732Z,1.60
2022-12-25T05:21:44.757Z,1.59
2022-12-25T05:24:30.067Z,1.59
2022-12-25T05:27:14.810Z,1.58
2022-12-25T05:29:59.831Z,1.50
2022-12-25T05:32:44.858Z,1.50
2022-12-25T05:35:30.245Z,1.48
2022-12-25T05:38:14.713Z,1.45
2022-12-25T05:40:59.650Z,1.48
2022-12-25T05:43:44.658Z,1.49
2022-12-25T05:46:29.432Z,1.48
2022-12-25T05:49:14.775Z,1.51
2022-12-25T05:52:00.132Z,1.54
2022-12-25T05:54:45.161Z,1.54
2022-12-25T05:57:31.378Z,1.57
2022-12-25T06:00:16.435Z,1.57
2022-12-25T06:03:02.488Z,1.62
2022-12-25T06:05:47.217Z,1.59
2022-12-25T06:08:33.720Z,1.59
2022-12-25T06:11:18.537Z,1.60
2022-12-25T06:14:03.574Z,1.58
2022-12-25T06:16:52.661Z,1.55
2022-12-25T06:19:37.379Z,1.54
2022-12-25T06:22:22.367Z,1.52
2022-12-25T06:25:07.935Z,1.55
2022-12-25T06:27:52.830Z,1.59
2022-12-25T06:30:37.834Z,1.59
2022-12-25T06:33:22.824Z,1.60
2022-12-25T06:36:10.829Z,1.58
2022-12-25T06:38:56.166Z,1.56
2022-12-25T06:41:40.965Z,1.53
2022-12-25T06:44:26.011Z,1.53
2022-12-25T06:47:10.758Z,1.58
2022-12-25T06:49:55.963Z,1.56
2022-12-25T06:52:40.674Z,1.50
2022-12-25T06:55:25.277Z,1.53
2022-12-25T06:58:10.004Z,1.54
2022-12-25T07:00:55.387Z,1.52
2022-12-25T07:03:42.948Z,1.48
2022-12-25T07:06:27.997Z,1.49
2022-12-25T07:09:12.737Z,1.53
2022-12-25T07:12:13.096Z,1.57
2022-12-25T07:14:57.633Z,1.54
2022-12-25T07:17:42.958Z,1.55
2022-12-25T07:20:29.372Z,1.54
2022-12-25T07:23:14.058Z,1.56
2022-12-25T07:26:00.240Z,1.54
2022-12-25T07:28:45.094Z,1.58
2022-12-25T07:31:30.146Z,1.52
2022-12-25T07:34:17.239Z,1.51
2022-12-25T07:37:02.403Z,1.51
2022-12-25T07:39:46.904Z,1.51
2022-12-25T07:42:31.663Z,1.53
2022-12-25T07:45:16.733Z,1.53
2022-12-25T07:48:05.432Z,1.48
2022-12-25T07:50:59.837Z,1.46
2022-12-25T07:53:45.023Z,1.45
2022-12-25T07:56:29.630Z,1.50
2022-12-25T07:59:14.449Z,1.54
2022-12-25T08:01:59.449Z,1.52
2022-12-25T08:04:44.216Z,1.58
2022-12-25T08:07:29.140Z,1.66
2022-12-25T08:10:13.924Z,1.79
2022-12-25T08:12:58.887Z,1.92
2022-12-25T08:15:43.601Z,2.05
2022-12-25T08:18:30.401Z,2.12
2022-12-25T08:21:15.667Z,2.17
2022-12-25T08:24:02.016Z,2.29
2022-12-25T08:26:47.755Z,2.30
2022-12-25T08:29:33.111Z,2.25
2022-12-25T08:32:18.006Z,2.20
2022-12-25T08:35:02.579Z,2.11
2022-12-25T08:37:47.262Z,2.03
2022-12-25T08:40:31.959Z,2.03
2022-12-25T08:43:16.905Z,1.99
2022-12-25T08:46:02.535Z,1.97
2022-12-25T08:48:48.612Z,1.89
2022-12-25T08:51:33.688Z,1.84
2022-12-25T08:54:18.326Z,1.79
2022-12-25T08:57:03.586Z,1.82
2022-12-25T08:59:48.496Z,1.88
2022-12-25T09:02:33.728Z,1.93
2022-12-25T09:05:18.732Z,1.97
2022-12-25T09:08:03.535Z,2.00
2022-12-25T09:10:48.687Z,2.01
2022-12-25T09:13:33.785Z,2.11
2022-12-25T09:16:21.149Z,2.23
2022-12-25T09:19:06.600Z,2.29
2022-12-25T09:21:51.442Z,2.28
2022-12-25T09:24:38.601Z,2.29
2022-12-25T09:27:23.595Z,2.36
2022-12-25T09:30:09.298Z,2.36
2022-12-25T09:32:54.102Z,2.37
2022-12-25T09:35:38.806Z,2.47
2022-12-25T09:38:24.050Z,2.49
2022-12-25T09:41:57.669Z,2.51
2022-12-25T09:44:47.068Z,2.53
2022-12-25T09:47:37.828Z,2.49
2022-12-25T09:50:51.341Z,2.51
2022-12-25T09:53:45.312Z,2.48
2022-12-25T09:56:32.045Z,2.49
2022-12-25T09:59:25.742Z,2.58
2022-12-25T10:02:35.829Z,2.62
2022-12-25T10:05:20.455Z,2.61
2022-12-25T10:08:18.996Z,2.62
2022-12-25T10:11:09.858Z,2.73
2022-12-25T10:14:21.299Z,2.80
2022-12-25T10:17:21.342Z,2.89
2022-12-25T10:20:33.925Z,2.94
2022-12-25T10:23:40.277Z,2.95
2022-12-25T10:26:26.423Z,2.84
2022-12-25T10:29:16.897Z,2.76
2022-12-25T10:32:01.764Z,2.72
2022-12-25T10:34:46.878Z,2.72
2022-12-25T10:37:31.753Z,2.78
2022-12-25T10:40:40.261Z,2.75
2022-12-25T10:43:36.845Z,2.69
2022-12-25T10:46:25.612Z,2.58
2022-12-25T10:49:14.919Z,2.51
2022-12-25T10:52:01.277Z,2.44
2022-12-25T10:54:46.350Z,2.42
2022-12-25T10:57:31.400Z,2.35
2022-12-25T11:00:25.459Z,2.31
2022-12-25T11:03:24.054Z,2.26
2022-12-25T11:06:23.297Z,2.21
2022-12-25T11:09:15.908Z,2.13
2022-12-25T11:12:01.184Z,2.07
2022-12-25T11:14:57.722Z,1.97
2022-12-25T11:17:48.984Z,1.92
2022-12-25T11:20:33.674Z,1.85
2022-12-25T11:23:20.892Z,1.82
2022-12-25T11:26:07.579Z,1.84
2022-12-25T11:28:54.587Z,1.84
2022-12-25T11:31:40.669Z,1.85
2022-12-25T11:34:28.631Z,1.91
2022-12-25T11:37:31.838Z,1.93
2022-12-25T11:40:57.513Z,1.86
2022-12-25T11:43:49.259Z,1.82
2022-12-25T11:46:43.397Z,1.79
2022-12-25T11:49:29.960Z,1.74
2022-12-25T11:52:16.577Z,1.71
2022-12-25T11:55:16.528Z,1.65
2022-12-25T11:58:11.268Z,1.61
2022-12-25T12:00:58.565Z,1.63
2022-12-25T12:03:44.297Z,1.58
2022-12-25T12:06:41.719Z,1.57
2022-12-25T12:09:44.483Z,1.58
2022-12-25T12:12:35.469Z,1.58
2022-12-25T12:15:35.201Z,1.48
2022-12-25T12:18:27.509Z,1.41
2022-12-25T12:21:21.275Z,1.39
2022-12-25T12:24:15.980Z,1.39
2022-12-25T12:27:05.406Z,1.36
2022-12-25T12:29:53.319Z,1.31
2022-12-25T12:32:47.043Z,1.33
2022-12-25T12:35:34.992Z,1.28
2022-12-25T12:51:33.612Z,1.33
2022-12-25T12:54:24.082Z,1.34
2022-12-25T12:57:26.321Z,1.27
2022-12-25T13:00:20.606Z,1.23
2022-12-25T13:03:25.972Z,1.21
2022-12-25T13:06:31.782Z,1.19
2022-12-25T13:09:45.423Z,1.22
2022-12-25T13:12:30.347Z,1.19
2022-12-25T13:15:15.869Z,1.22
2022-12-25T13:18:06.957Z,1.23
2022-12-25T13:20:55.774Z,1.28
2022-12-25T13:23:40.433Z,1.27
2022-12-25T13:26:25.966Z,1.24
2022-12-25T13:29:29.484Z,1.26
2022-12-25T13:32:21.383Z,1.28
2022-12-25T13:35:12.241Z,1.29
2022-12-25T13:37:57.515Z,1.26
2022-12-25T13:41:10.461Z,1.25
2022-12-25T13:43:58.136Z,1.24
2022-12-25T13:46:43.920Z,1.22
2022-12-25T13:49:30.457Z,1.24
2022-12-25T13:52:19.709Z,1.24
2022-12-25T13:55:12.508Z,1.22
2022-12-25T13:58:03.209Z,1.16
2022-12-25T14:00:52.064Z,1.15
2022-12-25T14:03:41.001Z,1.17
2022-12-25T14:06:28.250Z,1.16
2022-12-25T14:09:14.648Z,1.15
2022-12-25T14:11:59.329Z,1.20
2022-12-25T14:14:44.205Z,1.20
2022-12-25T14:17:29.296Z,1.16
2022-12-25T14:20:28.051Z,1.22
2022-12-25T14:23:15.579Z,1.20
2022-12-25T14:26:00.453Z,1.22
2022-12-25T14:28:49.769Z,1.23
2022-12-25T14:31:37.875Z,1.22
2022-12-25T14:34:25.423Z,1.19
2022-12-25T14:37:16.757Z,1.19
2022-12-25T14:40:05.841Z,1.19
2022-12-25T14:43:05.942Z,1.15
2022-12-25T14:45:59.493Z,1.15
2022-12-25T14:48:44.404Z,1.16
2022-12-25T14:51:30.267Z,1.16
2022-12-25T14:54:19.625Z,1.12
2022-12-25T14:57:05.036Z,1.15
2022-12-25T15:00:28.000Z,1.15
2022-12-25T15:03:34.533Z,1.17
2022-12-25T15:06:24.209Z,1.18
2022-12-25T15:09:18.356Z,1.16
2022-12-25T15:12:03.499Z,1.15
2022-12-25T15:14:48.422Z,1.14
2022-12-25T15:17:35.923Z,1.16
2022-12-25T15:20:27.290Z,1.14
2022-12-25T15:23:20.037Z,1.16
2022-12-25T15:26:05.271Z,1.17
2022-12-25T15:28:51.062Z,1.19
2022-12-25T15:31:37.915Z,1.19
2022-12-25T15:34:22.985Z,1.18
2022-12-25T15:37:08.371Z,1.14
2022-12-25T15:39:53.779Z,1.15
2022-12-25T15:42:39.819Z,1.14
2022-12-25T15:45:28.420Z,1.12
2022-12-25T15:48:13.101Z,1.16
2022-12-25T15:50:57.907Z,1.16
2022-12-25T15:53:42.476Z,1.12
2022-12-25T15:56:29.192Z,1.13
2022-12-25T15:59:15.764Z,1.11
2022-12-25T16:02:01.201Z,1.11
2022-12-25T16:04:46.263Z,1.14
2022-12-25T16:07:32.943Z,1.12
2022-12-25T16:10:19.153Z,1.15
2022-12-25T16:13:04.165Z,1.16
2022-12-25T16:15:48.990Z,1.19
2022-12-25T16:18:33.691Z,1.17
2022-12-25T16:21:20.398Z,1.22
2022-12-25T16:24:05.455Z,1.20
2022-12-25T16:26:50.231Z,1.19
2022-12-25T16:29:35.373Z,1.18
2022-12-25T16:32:20.330Z,1.21
2022-12-25T16:35:05.675Z,1.15
2022-12-25T16:37:50.800Z,1.13
2022-12-25T16:40:35.601Z,1.14
2022-12-25T16:43:24.136Z,1.13
2022-12-25T16:46:11.495Z,1.12
2022-12-25T16:48:56.957Z,1.08
2022-12-25T16:51:42.366Z,1.08
2022-12-25T16:54:27.162Z,1.06
2022-12-25T16:57:14.052Z,1.10
2022-12-25T16:59:59.408Z,1.08
2022-12-25T17:02:44.579Z,1.10
2022-12-25T17:05:29.760Z,1.10
2022-12-25T17:08:14.868Z,1.06
2022-12-25T17:11:03.944Z,1.06
2022-12-25T17:13:49.119Z,1.02
2022-12-25T17:16:35.737Z,1.04
2022-12-25T17:19:23.183Z,1.02
2022-12-25T17:22:07.945Z,1.01
2022-12-25T17:24:52.661Z,1.04
2022-12-25T17:27:37.249Z,1.01
2022-12-25T17:30:22.391Z,1.03
2022-12-25T17:33:07.401Z,1.00
2022-12-25T17:35:52.437Z,1.02
2022-12-25T17:38:38.154Z,0.98
2022-12-25T17:41:22.778Z,0.97
2022-12-25T17:44:09.015Z,0.97
2022-12-25T17:46:53.988Z,0.94
2022-12-25T17:49:38.907Z,0.93
2022-12-25T17:52:23.727Z,0.98
2022-12-25T17:55:08.664Z,0.97
2022-12-25T17:57:53.442Z,1.00
2022-12-25T18:00:38.477Z,0.97
2022-12-25T18:03:23.579Z,1.02
2022-12-25T18:06:14.224Z,0.99
2022-12-25T18:08:59.002Z,1.00
2022-12-25T18:11:43.715Z,1.05
2022-12-25T18:14:28.365Z,1.07
2022-12-25T18:17:13.236Z,1.10
2022-12-25T18:19:57.868Z,1.12
2022-12-25T18:22:42.953Z,1.12
2022-12-25T18:25:28.035Z,1.16
2022-12-25T18:28:13.213Z,1.17
2022-12-25T18:30:58.739Z,1.19
2022-12-25T18:33:44.120Z,1.22
2022-12-25T18:36:29.614Z,1.24
2022-12-25T18:39:14.558Z,1.20
2022-12-25T18:42:18.508Z,1.21
2022-12-25T18:45:03.386Z,1.23
2022-12-25T18:47:48.673Z,1.24
2022-12-25T18:50:35.568Z,1.24
2022-12-25T18:53:20.527Z,1.23
2022-12-25T18:56:06.401Z,1.25
2022-12-25T18:58:50.892Z,1.23
2022-12-25T19:01:36.919Z,1.24
2022-12-25T19:04:22.019Z,1.24
2022-12-25T19:07:06.973Z,1.22
2022-12-25T19:09:52.556Z,1.24
2022-12-25T19:12:37.436Z,1.28
2022-12-25T19:15:22.675Z,1.29
2022-12-25T19:18:07.100Z,1.31
2022-12-25T19:20:51.861Z,1.32
2022-12-25T19:23:40.029Z,1.32
2022-12-25T19:26:24.713Z,1.30
2022-12-25T19:29:09.893Z,1.27
2022-12-25T19:31:56.026Z,1.30
2022-12-25T19:34:40.862Z,1.28
2022-12-25T19:37:25.863Z,1.28
2022-12-25T19:40:10.853Z,1.30
2022-12-25T19:42:55.730Z,1.27
2022-12-25T19:45:40.736Z,1.28
2022-12-25T19:48:25.781Z,1.26
2022-12-25T19:51:24.214Z,1.28
2022-12-25T19:54:14.621Z,1.27
2022-12-25T19:56:59.587Z,1.24
2022-12-25T19:59:44.347Z,1.26
2022-12-25T20:02:29.284Z,1.22
2022-12-25T20:05:13.909Z,1.26
2022-12-25T20:07:58.523Z,1.25
2022-12-25T20:10:43.764Z,1.22
2022-12-25T20:13:28.419Z,1.21
2022-12-25T20:16:13.421Z,1.21
2022-12-25T20:18:58.520Z,1.18
2022-12-25T20:21:43.332Z,1.23
2022-12-25T20:24:27.958Z,1.24
2022-12-25T20:27:12.970Z,1.23
2022-12-25T20:29:57.713Z,1.29
2022-12-25T20:32:48.123Z,1.28
2022-12-25T20:35:35.502Z,1.28
2022-12-25T20:38:20.061Z,1.26
2022-12-25T20:44:12.834Z,1.28
2022-12-25T20:47:00.433Z,1.25
2022-12-25T20:49:46.741Z,1.26
2022-12-25T20:52:31.633Z,1.22
2022-12-25T20:55:16.630Z,1.22
2022-12-25T20:58:01.625Z,1.21
2022-12-25T21:00:46.499Z,1.24
2022-12-25T21:03:31.590Z,1.20
2022-12-25T21:06:17.017Z,1.19
2022-12-25T21:09:01.639Z,1.11
2022-12-25T21:11:46.606Z,1.01
2022-12-25T21:14:31.410Z,1.05
2022-12-25T21:17:16.193Z,1.04
2022-12-25T21:20:00.838Z,1.08
2022-12-25T21:22:45.352Z,1.04
2022-12-25T21:25:30.089Z,1.12
2022-12-25T21:28:15.809Z,1.12
2022-12-25T21:31:07.828Z,1.09
2022-12-25T21:33:54.473Z,1.11
2022-12-25T21:36:40.651Z,1.09
2022-12-25T21:39:25.857Z,1.12
2022-12-25T21:42:10.920Z,1.14
2022-12-25T21:44:55.573Z,1.17
2022-12-25T21:47:59.896Z,1.14
2022-12-25T21:51:03.287Z,1.04
2022-12-25T21:53:48.460Z,0.92
2022-12-25T21:56:41.653Z,0.83
2022-12-25T21:59:28.384Z,0.71
2022-12-25T22:02:13.342Z,0.63
2022-12-25T22:04:58.184Z,0.60
2022-12-25T22:07:43.187Z,0.52
2022-12-25T22:10:28.236Z,0.52
2022-12-25T22:13:31.644Z,0.47
2022-12-25T22:16:34.963Z,0.47
2022-12-25T22:19:38.354Z,0.50
2022-12-25T22:22:26.726Z,0.49
2022-12-25T22:25:13.574Z,0.54
2022-12-25T22:27:58.998Z,0.59
2022-12-25T22:30:45.031Z,0.60
2022-12-25T22:33:30.138Z,0.65
2022-12-25T22:36:14.944Z,0.67
2022-12-25T22:39:00.285Z,0.68
2022-12-25T22:41:45.207Z,0.72
2022-12-25T22:44:32.002Z,0.73
2022-12-25T22:47:16.687Z,0.71
2022-12-25T22:50:01.620Z,0.77
2022-12-25T22:52:46.537Z,0.81
2022-12-25T22:55:31.461Z,0.81
2022-12-25T22:58:16.361Z,0.86
2022-12-25T23:01:00.974Z,0.88
2022-12-25T23:03:45.739Z,0.92
2022-12-25T23:06:30.390Z,0.91
2022-12-25T23:09:24.262Z,0.90
2022-12-25T23:12:29.231Z,0.95
2022-12-25T23:15:14.111Z,0.93
2022-12-25T23:18:17.677Z,0.94
2022-12-25T23:21:21.044Z,0.93
2022-12-25T23:24:26.941Z,0.95
2022-12-25T23:27:11.964Z,0.94
2022-12-25T23:29:56.837Z,0.95
2022-12-25T23:32:43.356Z,0.94
2022-12-25T23:35:29.284Z,0.99
2022-12-25T23:38:13.798Z,1.01
2022-12-25T23:40:58.904Z,0.99
2022-12-25T23:43:43.754Z,1.00
2022-12-25T23:46:28.936Z,0.99
2022-12-25T23:49:13.588Z,1.01
2022-12-25T23:51:58.299Z,0.98
2022-12-25T23:54:43.277Z,1.01
2022-12-25T23:57:28.306Z,1.01
